Time;durP1;ratioP1;P1;durP2;ratioP2;P2;SDS_P1;SDS_P2;PMS_P1;PMS_P2;Temp;Humidity;BMP_temperature;BMP_pressure;BME280_temperature;BME280_humidity;BME280_pressure;Samples;Min_cycle;Max_cycle;Signal;HPM_P1;HPM_P2
2021/05/02 00:00:18;;;;;;;7.20;5.25;;;;;;;;;;5106972;28;20048;-63
2021/05/02 00:02:44;;;;;;;6.95;5.65;;;;;;;;;;5126088;28;20047;-66
2021/05/02 00:05:11;;;;;;;8.50;5.95;;;;;;;;;;5125395;28;20024;-64
2021/05/02 00:07:37;;;;;;;8.15;6.13;;;;;;;;;;5126247;28;20031;-63
2021/05/02 00:10:04;;;;;;;7.63;5.38;;;;;;;;;;5125444;28;20020;-63
2021/05/02 00:12:31;;;;;;;8.82;6.90;;;;;;;;;;5125748;28;20031;-63
2021/05/02 00:14:57;;;;;;;8.32;6.47;;;;;;;;;;5122588;28;20097;-63
2021/05/02 00:17:24;;;;;;;6.97;6.20;;;;;;;;;;5112436;28;20057;-63
2021/05/02 00:19:50;;;;;;;8.15;7.10;;;;;;;;;;5125107;28;20062;-63
2021/05/02 00:22:17;;;;;;;8.23;5.97;;;;;;;;;;5107439;28;20016;-63
2021/05/02 00:24:44;;;;;;;9.15;6.80;;;;;;;;;;5125158;28;20031;-64
2021/05/02 00:27:10;;;;;;;7.30;6.05;;;;;;;;;;5125965;28;20102;-63
2021/05/02 00:29:36;;;;;;;7.72;6.85;;;;;;;;;;5124949;28;20059;-63
2021/05/02 00:32:03;;;;;;;9.07;7.30;;;;;;;;;;5095986;28;20391;-64
2021/05/02 00:34:29;;;;;;;7.65;6.68;;;;;;;;;;5112324;28;20035;-64
2021/05/02 00:36:55;;;;;;;7.95;6.93;;;;;;;;;;5125883;28;20035;-64
2021/05/02 00:39:21;;;;;;;9.65;6.03;;;;;;;;;;5124650;28;20110;-66
2021/05/02 00:41:49;;;;;;;8.05;6.60;;;;;;;;;;5125561;28;20054;-65
2021/05/02 00:44:25;;;;;;;8.80;6.82;;;;;;;;;;5112274;28;20446;-64
2021/05/02 00:46:58;;;;;;;7.60;6.50;;;;;;;;;;5105870;28;20102;-68
2021/05/02 00:49:27;;;;;;;8.27;6.53;;;;;;;;;;5121818;28;20023;-71
2021/05/02 00:51:57;;;;;;;8.15;6.63;;;;;;;;;;5125435;28;20452;-63
2021/05/02 00:54:34;;;;;;;7.07;6.30;;;;;;;;;;5120323;28;20016;-64
2021/05/02 00:57:01;;;;;;;7.45;6.38;;;;;;;;;;5105568;28;20167;-63
2021/05/02 00:59:44;;;;;;;6.95;6.22;;;;;;;;;;5116904;28;20036;-63
2021/05/02 01:02:14;;;;;;;7.03;6.07;;;;;;;;;;5126256;28;20030;-64
2021/05/02 01:04:44;;;;;;;7.20;6.50;;;;;;;;;;5123734;28;20039;-66
2021/05/02 01:07:34;;;;;;;8.18;6.47;;;;;;;;;;5125635;28;20099;-63
2021/05/02 01:10:04;;;;;;;7.32;6.15;;;;;;;;;;5119904;28;20111;-63
2021/05/02 01:12:31;;;;;;;8.38;6.35;;;;;;;;;;5109736;28;20049;-67
2021/05/02 01:14:58;;;;;;;8.48;5.80;;;;;;;;;;5124889;28;20034;-63
2021/05/02 01:17:25;;;;;;;8.65;5.78;;;;;;;;;;5113519;28;20460;-63
2021/05/02 01:19:52;;;;;;;8.50;6.43;;;;;;;;;;5105541;28;20031;-66
2021/05/02 01:22:19;;;;;;;7.43;6.38;;;;;;;;;;5112707;28;20038;-63
2021/05/02 01:24:49;;;;;;;6.40;5.78;;;;;;;;;;5108677;28;20028;-63
2021/05/02 01:27:41;;;;;;;7.47;6.18;;;;;;;;;;5114451;28;20024;-63
2021/05/02 01:30:09;;;;;;;8.70;6.03;;;;;;;;;;5101177;28;20050;-64
2021/05/02 01:32:35;;;;;;;8.13;5.88;;;;;;;;;;5106049;28;20046;-68
2021/05/02 01:35:02;;;;;;;6.75;6.05;;;;;;;;;;5105304;28;20462;-64
2021/05/02 01:37:28;;;;;;;6.93;6.00;;;;;;;;;;5106267;28;20028;-63
2021/05/02 01:39:54;;;;;;;8.52;6.25;;;;;;;;;;5105410;28;20111;-63
2021/05/02 01:42:20;;;;;;;8.23;5.82;;;;;;;;;;5118751;28;20089;-64
2021/05/02 01:44:47;;;;;;;7.88;6.28;;;;;;;;;;5124361;28;20039;-63
2021/05/02 01:47:16;;;;;;;7.75;6.00;;;;;;;;;;5112009;28;20023;-65
2021/05/02 01:49:49;;;;;;;7.97;5.80;;;;;;;;;;5102619;28;20039;-62
2021/05/02 01:52:17;;;;;;;9.30;6.22;;;;;;;;;;5104837;28;20028;-66
2021/05/02 01:54:43;;;;;;;7.57;6.22;;;;;;;;;;5104121;28;20024;-65
2021/05/02 01:57:09;;;;;;;6.63;5.95;;;;;;;;;;5122387;28;20122;-63
2021/05/02 01:59:38;;;;;;;9.30;7.00;;;;;;;;;;5105711;28;20052;-62
2021/05/02 02:02:05;;;;;;;7.70;6.25;;;;;;;;;;5115209;28;20023;-63
2021/05/02 02:04:34;;;;;;;7.70;6.22;;;;;;;;;;5105843;28;20094;-63
2021/05/02 02:07:00;;;;;;;8.60;6.93;;;;;;;;;;5110908;28;20028;-63
2021/05/02 02:09:29;;;;;;;8.18;6.88;;;;;;;;;;5125468;28;20087;-63
2021/05/02 02:11:55;;;;;;;6.93;5.82;;;;;;;;;;5123608;28;20038;-67
2021/05/02 02:14:23;;;;;;;6.75;5.93;;;;;;;;;;5118181;28;20078;-63
2021/05/02 02:16:51;;;;;;;7.22;6.10;;;;;;;;;;5111888;28;20098;-63
2021/05/02 02:19:17;;;;;;;7.00;6.22;;;;;;;;;;5123852;28;20511;-64
2021/05/02 02:21:44;;;;;;;7.35;6.35;;;;;;;;;;5122980;28;20032;-63
2021/05/02 02:24:11;;;;;;;7.00;6.15;;;;;;;;;;5120759;28;20079;-64
2021/05/02 02:26:51;;;;;;;6.68;6.03;;;;;;;;;;5108365;28;20034;-64
2021/05/02 02:29:18;;;;;;;7.13;6.18;;;;;;;;;;5116965;28;20031;-70
2021/05/02 02:31:45;;;;;;;8.02;6.18;;;;;;;;;;5127906;28;20031;-64
2021/05/02 02:34:13;;;;;;;6.45;5.80;;;;;;;;;;5119595;28;20028;-65
2021/05/02 02:36:39;;;;;;;7.78;5.82;;;;;;;;;;5091379;28;20439;-64
2021/05/02 02:39:05;;;;;;;7.05;5.47;;;;;;;;;;5108608;28;20054;-62
2021/05/02 02:41:36;;;;;;;6.90;6.10;;;;;;;;;;5111977;28;20489;-63
2021/05/02 02:44:02;;;;;;;7.93;7.05;;;;;;;;;;5128033;28;20016;-64
2021/05/02 02:46:30;;;;;;;7.53;6.15;;;;;;;;;;5125668;28;20026;-65
2021/05/02 02:48:57;;;;;;;7.20;6.28;;;;;;;;;;5115694;28;20032;-65
2021/05/02 02:51:27;;;;;;;6.85;6.05;;;;;;;;;;5126663;28;20106;-65
2021/05/02 02:53:56;;;;;;;9.13;6.18;;;;;;;;;;5118392;28;20436;-63
2021/05/02 02:56:22;;;;;;;10.02;6.38;;;;;;;;;;5108265;28;20035;-63
2021/05/02 02:59:02;;;;;;;7.47;6.72;;;;;;;;;;5108377;28;20028;-62
2021/05/02 03:01:28;;;;;;;10.02;6.18;;;;;;;;;;5108061;28;20496;-62
2021/05/02 03:04:02;;;;;;;9.90;6.70;;;;;;;;;;5108783;28;20020;-66
2021/05/02 03:06:28;;;;;;;7.45;6.40;;;;;;;;;;5107340;28;20016;-64
2021/05/02 03:08:55;;;;;;;8.43;7.15;;;;;;;;;;5103928;28;20028;-65
2021/05/02 03:11:22;;;;;;;7.70;6.90;;;;;;;;;;5122863;28;20028;-63
2021/05/02 03:13:48;;;;;;;8.80;7.13;;;;;;;;;;5108003;28;20481;-70
2021/05/02 03:16:18;;;;;;;7.70;6.80;;;;;;;;;;5111565;28;20035;-67
2021/05/02 03:18:47;;;;;;;9.07;6.43;;;;;;;;;;5124771;28;20062;-63
2021/05/02 03:21:17;;;;;;;10.35;7.40;;;;;;;;;;5107919;28;20023;-64
2021/05/02 03:23:44;;;;;;;9.75;7.55;;;;;;;;;;5110594;28;20020;-68
2021/05/02 03:26:11;;;;;;;9.75;7.68;;;;;;;;;;5126808;28;20034;-62
2021/05/02 03:28:44;;;;;;;9.35;7.90;;;;;;;;;;5125525;28;20036;-62
2021/05/02 03:31:12;;;;;;;8.13;7.30;;;;;;;;;;5121109;28;20024;-63
2021/05/02 03:33:42;;;;;;;8.27;7.20;;;;;;;;;;5126964;28;20027;-65
2021/05/02 03:36:13;;;;;;;10.75;7.45;;;;;;;;;;5122734;28;20049;-62
2021/05/02 03:38:45;;;;;;;8.15;7.30;;;;;;;;;;5106121;28;20094;-63
2021/05/02 03:41:11;;;;;;;8.65;7.75;;;;;;;;;;5091913;28;20027;-65
2021/05/02 03:43:38;;;;;;;12.52;7.55;;;;;;;;;;5110309;28;20035;-62
2021/05/02 03:46:04;;;;;;;8.98;7.45;;;;;;;;;;5107307;28;20020;-63
2021/05/02 03:48:30;;;;;;;11.73;8.43;;;;;;;;;;5106394;28;20617;-63
2021/05/02 03:50:56;;;;;;;9.55;7.72;;;;;;;;;;5088693;28;20054;-64
2021/05/02 03:53:22;;;;;;;9.00;7.50;;;;;;;;;;5122651;28;20072;-66
2021/05/02 03:55:49;;;;;;;8.25;7.22;;;;;;;;;;5125525;28;20031;-64
2021/05/02 03:58:16;;;;;;;11.18;8.82;;;;;;;;;;5105494;28;20027;-62
2021/05/02 04:00:42;;;;;;;11.10;9.50;;;;;;;;;;5106752;28;20030;-63
2021/05/02 04:03:09;;;;;;;14.20;10.20;;;;;;;;;;5122185;28;20030;-63
2021/05/02 04:05:35;;;;;;;12.15;8.73;;;;;;;;;;5125265;28;20024;-63
2021/05/02 04:08:01;;;;;;;15.88;10.55;;;;;;;;;;5109600;28;20024;-63
2021/05/02 04:10:27;;;;;;;15.30;10.65;;;;;;;;;;5105672;28;20032;-63
2021/05/02 04:12:53;;;;;;;15.60;9.55;;;;;;;;;;5124592;28;20084;-64
2021/05/02 04:15:20;;;;;;;15.85;10.27;;;;;;;;;;5125768;28;20027;-63
2021/05/02 04:17:46;;;;;;;17.23;9.65;;;;;;;;;;5124255;28;20058;-63
2021/05/02 04:20:12;;;;;;;13.60;9.77;;;;;;;;;;5125764;28;20028;-63
2021/05/02 04:22:39;;;;;;;12.18;9.68;;;;;;;;;;5123274;28;20076;-65
2021/05/02 04:25:05;;;;;;;14.40;9.45;;;;;;;;;;5107536;28;20024;-62
2021/05/02 04:27:31;;;;;;;13.65;9.35;;;;;;;;;;5104845;28;20052;-62
2021/05/02 04:29:58;;;;;;;11.88;9.68;;;;;;;;;;5106093;28;20036;-63
2021/05/02 04:32:24;;;;;;;13.73;9.77;;;;;;;;;;5119690;28;20091;-63
2021/05/02 04:34:50;;;;;;;13.30;9.07;;;;;;;;;;5119441;28;20033;-68
2021/05/02 04:37:16;;;;;;;13.82;10.18;;;;;;;;;;5125211;28;20024;-62
2021/05/02 04:39:42;;;;;;;10.70;8.52;;;;;;;;;;5110259;28;20028;-65
2021/05/02 04:42:08;;;;;;;11.95;8.73;;;;;;;;;;5105699;28;20028;-62
2021/05/02 04:44:35;;;;;;;13.52;10.27;;;;;;;;;;5118851;28;20081;-67
2021/05/02 04:47:01;;;;;;;11.00;8.60;;;;;;;;;;5109363;28;20032;-64
2021/05/02 04:49:27;;;;;;;12.38;9.45;;;;;;;;;;5087849;28;20042;-63
2021/05/02 04:51:53;;;;;;;12.52;9.23;;;;;;;;;;5106131;28;20387;-64
2021/05/02 04:54:20;;;;;;;12.32;9.35;;;;;;;;;;5105429;28;20056;-63
2021/05/02 04:56:47;;;;;;;12.63;9.02;;;;;;;;;;5104804;28;20028;-64
2021/05/02 04:59:13;;;;;;;11.52;9.05;;;;;;;;;;5105150;28;20028;-63
2021/05/02 05:01:40;;;;;;;14.43;9.23;;;;;;;;;;5104805;28;20031;-63
2021/05/02 05:04:07;;;;;;;12.05;10.15;;;;;;;;;;5105500;28;20020;-63
2021/05/02 05:06:34;;;;;;;12.18;9.43;;;;;;;;;;5105004;28;20030;-63
2021/05/02 05:09:00;;;;;;;13.20;10.18;;;;;;;;;;5105718;28;20034;-63
2021/05/02 05:11:26;;;;;;;11.82;9.27;;;;;;;;;;5110869;28;20032;-63
2021/05/02 05:13:52;;;;;;;12.73;9.38;;;;;;;;;;5104874;28;20036;-63
2021/05/02 05:16:18;;;;;;;12.73;9.02;;;;;;;;;;5104784;28;20024;-63
2021/05/02 05:18:44;;;;;;;14.38;9.50;;;;;;;;;;5105270;28;20046;-63
2021/05/02 05:21:10;;;;;;;13.55;10.30;;;;;;;;;;5108888;28;20047;-62
2021/05/02 05:23:36;;;;;;;14.20;9.98;;;;;;;;;;5120329;28;20031;-64
2021/05/02 05:26:02;;;;;;;11.18;9.20;;;;;;;;;;5105005;28;20035;-63
2021/05/02 05:28:28;;;;;;;17.15;11.68;;;;;;;;;;5109201;28;20020;-63
2021/05/02 05:30:55;;;;;;;13.77;10.50;;;;;;;;;;5107350;28;20032;-62
2021/05/02 05:33:22;;;;;;;12.80;10.27;;;;;;;;;;5108638;28;20095;-63
2021/05/02 05:35:48;;;;;;;13.13;11.20;;;;;;;;;;5124852;28;20028;-62
2021/05/02 05:38:14;;;;;;;13.55;10.07;;;;;;;;;;5122737;28;20032;-62
2021/05/02 05:40:41;;;;;;;15.68;10.45;;;;;;;;;;5105245;28;20027;-63
2021/05/02 05:43:07;;;;;;;12.40;10.02;;;;;;;;;;5111301;28;20101;-62
2021/05/02 05:45:33;;;;;;;12.27;9.48;;;;;;;;;;5109291;28;20475;-63
2021/05/02 05:48:00;;;;;;;13.40;9.90;;;;;;;;;;5121108;28;20478;-63
2021/05/02 05:50:27;;;;;;;11.60;9.00;;;;;;;;;;5123974;28;20101;-67
2021/05/02 05:52:53;;;;;;;11.27;9.50;;;;;;;;;;5119751;28;20031;-63
2021/05/02 05:55:20;;;;;;;11.43;8.80;;;;;;;;;;5126780;28;20520;-67
2021/05/02 05:57:46;;;;;;;9.55;8.38;;;;;;;;;;5128922;28;20079;-67
2021/05/02 06:00:13;;;;;;;11.48;9.43;;;;;;;;;;5124360;28;20027;-63
2021/05/02 06:02:39;;;;;;;11.48;8.38;;;;;;;;;;5119243;28;20474;-66
2021/05/02 06:05:05;;;;;;;11.52;8.80;;;;;;;;;;5104040;28;20111;-64
2021/05/02 06:07:32;;;;;;;11.45;9.05;;;;;;;;;;5108504;28;20031;-68
2021/05/02 06:09:58;;;;;;;10.85;9.23;;;;;;;;;;5102976;28;20050;-63
2021/05/02 06:12:24;;;;;;;13.40;9.30;;;;;;;;;;5109048;28;20028;-69
2021/05/02 06:14:50;;;;;;;10.82;8.93;;;;;;;;;;5127809;28;20032;-63
2021/05/02 06:17:17;;;;;;;11.55;9.15;;;;;;;;;;5128415;28;20024;-62
2021/05/02 06:19:43;;;;;;;10.90;8.10;;;;;;;;;;5112738;28;20051;-64
2021/05/02 06:22:09;;;;;;;10.95;8.32;;;;;;;;;;5128909;28;20065;-63
2021/05/02 06:24:35;;;;;;;9.05;8.13;;;;;;;;;;5115716;28;20092;-63
2021/05/02 06:27:02;;;;;;;9.18;7.32;;;;;;;;;;5089982;28;20024;-63
2021/05/02 06:29:28;;;;;;;9.80;7.95;;;;;;;;;;5109409;28;20028;-63
2021/05/02 06:31:54;;;;;;;9.57;7.93;;;;;;;;;;5108032;28;20035;-62
2021/05/02 06:34:20;;;;;;;12.07;7.95;;;;;;;;;;5124426;28;20024;-63
2021/05/02 06:36:46;;;;;;;9.55;7.47;;;;;;;;;;5126996;28;20054;-63
2021/05/02 06:39:12;;;;;;;8.90;7.47;;;;;;;;;;5127671;28;20035;-62
2021/05/02 06:41:40;;;;;;;8.93;7.25;;;;;;;;;;5122786;28;20440;-67
2021/05/02 06:44:09;;;;;;;10.15;7.47;;;;;;;;;;5120053;28;20107;-62
2021/05/02 06:46:37;;;;;;;9.60;8.20;;;;;;;;;;5123565;28;20020;-63
2021/05/02 06:49:05;;;;;;;9.85;7.65;;;;;;;;;;5108676;28;20036;-64
2021/05/02 06:51:31;;;;;;;9.98;7.63;;;;;;;;;;5109292;28;20028;-64
2021/05/02 06:53:58;;;;;;;8.38;7.60;;;;;;;;;;5114942;28;20032;-64
2021/05/02 06:56:25;;;;;;;9.02;7.40;;;;;;;;;;5108944;28;20031;-65
2021/05/02 06:58:54;;;;;;;9.23;7.53;;;;;;;;;;5127167;28;20036;-63
2021/05/02 07:01:21;;;;;;;8.30;7.43;;;;;;;;;;5123516;28;20047;-64
2021/05/02 07:03:47;;;;;;;8.65;7.57;;;;;;;;;;5107691;28;20050;-63
2021/05/02 07:06:13;;;;;;;8.40;7.45;;;;;;;;;;5111331;28;20020;-63
2021/05/02 07:08:39;;;;;;;9.18;7.32;;;;;;;;;;5125656;28;20019;-73
2021/05/02 07:11:05;;;;;;;9.68;7.57;;;;;;;;;;5107721;28;20030;-62
2021/05/02 07:13:31;;;;;;;10.45;8.10;;;;;;;;;;5126925;28;20069;-65
2021/05/02 07:16:01;;;;;;;9.95;7.40;;;;;;;;;;5125509;28;20033;-64
2021/05/02 07:18:32;;;;;;;11.60;7.32;;;;;;;;;;5112188;28;20028;-66
2021/05/02 07:20:58;;;;;;;8.48;7.60;;;;;;;;;;5107999;28;20024;-63
2021/05/02 07:23:24;;;;;;;8.95;8.02;;;;;;;;;;5119436;28;20112;-63
2021/05/02 07:25:51;;;;;;;8.75;7.47;;;;;;;;;;5112962;28;20016;-64
2021/05/02 07:28:17;;;;;;;8.38;7.47;;;;;;;;;;5118341;28;20096;-63
2021/05/02 07:30:43;;;;;;;8.32;7.35;;;;;;;;;;5119693;28;20024;-70
2021/05/02 07:33:09;;;;;;;9.32;7.70;;;;;;;;;;5102259;28;20383;-64
2021/05/02 07:35:35;;;;;;;8.48;7.47;;;;;;;;;;5119482;28;20023;-64
2021/05/02 07:38:02;;;;;;;10.95;7.97;;;;;;;;;;5109272;28;20023;-63
2021/05/02 07:40:28;;;;;;;9.70;7.47;;;;;;;;;;5117748;28;20096;-64
2021/05/02 07:42:54;;;;;;;10.13;7.57;;;;;;;;;;5114042;28;20414;-64
2021/05/02 07:45:20;;;;;;;10.88;8.68;;;;;;;;;;5111316;28;20058;-64
2021/05/02 07:47:47;;;;;;;8.65;7.50;;;;;;;;;;5106613;28;20020;-64
2021/05/02 07:50:13;;;;;;;8.50;7.15;;;;;;;;;;5113683;28;20055;-63
2021/05/02 07:52:40;;;;;;;9.20;7.70;;;;;;;;;;5116737;28;20091;-64
2021/05/02 07:55:06;;;;;;;9.85;7.85;;;;;;;;;;5117969;28;20024;-64
2021/05/02 07:57:32;;;;;;;7.55;6.63;;;;;;;;;;5126772;28;20080;-64
2021/05/02 07:59:59;;;;;;;8.43;7.55;;;;;;;;;;5113456;28;20055;-64
2021/05/02 08:02:26;;;;;;;10.20;6.80;;;;;;;;;;5116931;28;20020;-63
2021/05/02 08:04:52;;;;;;;8.65;6.90;;;;;;;;;;5113828;28;20027;-64
2021/05/02 08:07:18;;;;;;;7.47;6.68;;;;;;;;;;5122340;28;20028;-64
2021/05/02 08:09:44;;;;;;;9.05;7.15;;;;;;;;;;5113482;28;20024;-64
2021/05/02 08:12:10;;;;;;;8.77;7.55;;;;;;;;;;5123289;28;20493;-64
2021/05/02 08:14:36;;;;;;;8.52;6.97;;;;;;;;;;5108494;28;20040;-64
2021/05/02 08:17:03;;;;;;;9.15;7.70;;;;;;;;;;5115991;28;20044;-66
2021/05/02 08:19:29;;;;;;;9.10;6.60;;;;;;;;;;5107729;28;20024;-63
2021/05/02 08:21:55;;;;;;;8.38;6.78;;;;;;;;;;5106538;28;20031;-64
2021/05/02 08:24:21;;;;;;;8.10;6.75;;;;;;;;;;5108564;28;20048;-64
2021/05/02 08:26:47;;;;;;;8.38;6.85;;;;;;;;;;5123792;28;20095;-65
2021/05/02 08:29:13;;;;;;;7.97;6.97;;;;;;;;;;5106984;28;20028;-64
2021/05/02 08:31:40;;;;;;;7.95;6.72;;;;;;;;;;5111894;28;20032;-67
2021/05/02 08:34:06;;;;;;;8.27;6.70;;;;;;;;;;5107399;28;20057;-64
2021/05/02 08:36:32;;;;;;;8.20;6.38;;;;;;;;;;5106386;28;20483;-64
2021/05/02 08:38:59;;;;;;;8.00;6.00;;;;;;;;;;5123958;28;20341;-64
2021/05/02 08:41:25;;;;;;;7.55;6.45;;;;;;;;;;5124625;28;20023;-64
2021/05/02 08:43:56;;;;;;;8.75;6.65;;;;;;;;;;5125386;28;20111;-63
2021/05/02 08:46:22;;;;;;;6.85;6.10;;;;;;;;;;5122490;28;20715;-64
2021/05/02 08:48:48;;;;;;;7.80;7.00;;;;;;;;;;5119912;28;20046;-64
2021/05/02 08:51:15;;;;;;;9.13;6.47;;;;;;;;;;5113722;28;20429;-64
2021/05/02 08:53:41;;;;;;;8.27;6.28;;;;;;;;;;5112457;28;20052;-64
2021/05/02 08:56:07;;;;;;;7.78;6.43;;;;;;;;;;5120667;28;20107;-64
2021/05/02 08:58:34;;;;;;;7.18;6.47;;;;;;;;;;5106234;28;20522;-64
2021/05/02 09:01:01;;;;;;;9.77;7.15;;;;;;;;;;5111737;28;20020;-65
2021/05/02 09:03:45;;;;;;;7.00;6.40;;;;;;;;;;5105943;28;20031;-66
2021/05/02 09:06:22;;;;;;;6.40;5.43;;;;;;;;;;5114583;28;20027;-64
2021/05/02 09:08:49;;;;;;;8.93;6.38;;;;;;;;;;5112546;28;20023;-65
2021/05/02 09:11:16;;;;;;;7.07;6.13;;;;;;;;;;5109648;28;20039;-65
2021/05/02 09:13:47;;;;;;;13.07;7.47;;;;;;;;;;5115480;28;20046;-65
2021/05/02 09:16:14;;;;;;;7.82;6.40;;;;;;;;;;5116747;28;20034;-65
2021/05/02 09:18:43;;;;;;;8.50;6.35;;;;;;;;;;5117862;28;20053;-64
2021/05/02 09:21:09;;;;;;;8.15;6.25;;;;;;;;;;5118493;28;20096;-66
2021/05/02 09:23:36;;;;;;;9.05;6.53;;;;;;;;;;5113427;28;20035;-65
2021/05/02 09:26:04;;;;;;;7.90;6.80;;;;;;;;;;5105364;28;20078;-65
2021/05/02 09:28:50;;;;;;;7.13;6.43;;;;;;;;;;5109335;28;20024;-65
2021/05/02 09:31:18;;;;;;;7.65;5.82;;;;;;;;;;5119603;28;20023;-65
2021/05/02 09:33:44;;;;;;;6.93;5.68;;;;;;;;;;5114849;28;20024;-64
2021/05/02 09:36:12;;;;;;;8.50;6.50;;;;;;;;;;5105734;28;20020;-64
2021/05/02 09:38:38;;;;;;;6.35;5.75;;;;;;;;;;5116542;28;20020;-65
2021/05/02 09:41:05;;;;;;;7.72;6.00;;;;;;;;;;5124250;28;20020;-64
2021/05/02 09:43:45;;;;;;;7.78;5.53;;;;;;;;;;5114003;28;20020;-64
2021/05/02 09:49:13;;;;;;;6.65;5.75;;;;;;;;;;5117306;28;20032;-64
2021/05/02 09:51:43;;;;;;;7.60;5.50;;;;;;;;;;5124177;28;20049;-64
2021/05/02 09:54:20;;;;;;;5.30;4.65;;;;;;;;;;5118079;28;20435;-64
2021/05/02 09:56:48;;;;;;;5.28;4.68;;;;;;;;;;5116785;28;20042;-64
2021/05/02 09:59:23;;;;;;;6.35;5.07;;;;;;;;;;5124799;28;20034;-64
2021/05/02 10:02:08;;;;;;;7.63;4.78;;;;;;;;;;5109661;28;20025;-64
2021/05/02 10:04:34;;;;;;;6.38;4.55;;;;;;;;;;5117466;28;20027;-65
2021/05/02 10:07:02;;;;;;;5.13;4.63;;;;;;;;;;5121549;28;20019;-64
2021/05/02 10:09:29;;;;;;;6.20;5.57;;;;;;;;;;5106127;28;20020;-64
2021/05/02 10:11:55;;;;;;;5.55;4.43;;;;;;;;;;5105161;28;20028;-66
2021/05/02 10:14:21;;;;;;;5.10;4.40;;;;;;;;;;5104331;28;20081;-65
2021/05/02 10:16:47;;;;;;;4.40;4.00;;;;;;;;;;5104077;28;20036;-66
2021/05/02 10:19:13;;;;;;;5.53;4.45;;;;;;;;;;5114019;28;20501;-64
2021/05/02 10:21:40;;;;;;;5.72;4.10;;;;;;;;;;5105691;28;20048;-64
2021/05/02 10:24:06;;;;;;;5.35;3.80;;;;;;;;;;5114711;28;20087;-65
2021/05/02 10:26:33;;;;;;;5.30;4.80;;;;;;;;;;5103765;28;20372;-64
2021/05/02 10:28:59;;;;;;;5.47;4.57;;;;;;;;;;5114426;28;20035;-66
2021/05/02 10:31:29;;;;;;;6.57;4.63;;;;;;;;;;5128752;28;20034;-64
2021/05/02 10:33:55;;;;;;;6.32;5.47;;;;;;;;;;5127458;28;20068;-65
2021/05/02 10:36:22;;;;;;;5.75;5.10;;;;;;;;;;5128766;28;20065;-64
2021/05/02 10:38:52;;;;;;;5.07;4.57;;;;;;;;;;5123559;28;20036;-65
2021/05/02 10:41:22;;;;;;;6.32;5.03;;;;;;;;;;5107837;28;20028;-64
2021/05/02 10:43:48;;;;;;;5.13;4.60;;;;;;;;;;5112041;28;20062;-64
2021/05/02 10:46:33;;;;;;;7.57;6.70;;;;;;;;;;5128541;28;20023;-64
2021/05/02 10:48:59;;;;;;;7.50;5.78;;;;;;;;;;5127476;28;20027;-64
2021/05/02 10:51:26;;;;;;;7.75;6.97;;;;;;;;;;5128666;28;20030;-65
2021/05/02 10:54:05;;;;;;;5.70;4.53;;;;;;;;;;5123942;28;20514;-69
2021/05/02 10:56:45;;;;;;;6.78;5.30;;;;;;;;;;5107856;28;20031;-64
2021/05/02 10:59:11;;;;;;;5.68;5.03;;;;;;;;;;5112793;28;20044;-68
2021/05/02 11:01:37;;;;;;;5.30;4.80;;;;;;;;;;5111056;28;20036;-66
2021/05/02 11:04:03;;;;;;;5.97;4.80;;;;;;;;;;5118714;28;20031;-67
2021/05/02 11:06:39;;;;;;;7.20;4.88;;;;;;;;;;5120644;28;20033;-68
2021/05/02 11:09:18;;;;;;;6.18;4.40;;;;;;;;;;5108708;28;20093;-65
2021/05/02 11:11:47;;;;;;;6.18;5.40;;;;;;;;;;5115996;28;20024;-64
2021/05/02 11:14:18;;;;;;;4.82;4.22;;;;;;;;;;5116175;28;20040;-64
2021/05/02 11:17:10;;;;;;;4.30;3.90;;;;;;;;;;5107853;28;20027;-65
2021/05/02 11:19:36;;;;;;;6.90;4.47;;;;;;;;;;5118539;28;20070;-65
2021/05/02 11:22:04;;;;;;;4.45;3.63;;;;;;;;;;5111592;28;20024;-70
2021/05/02 11:24:43;;;;;;;4.20;3.80;;;;;;;;;;5111224;28;20078;-65
2021/05/02 11:29:56;;;;;;;5.07;3.83;;;;;;;;;;5111644;28;20047;-65
2021/05/02 11:34:55;;;;;;;5.47;3.65;;;;;;;;;;5121468;28;20059;-65
2021/05/02 11:37:41;;;;;;;3.45;3.15;;;;;;;;;;5121811;28;20058;-65
2021/05/02 11:40:26;;;;;;;4.53;3.60;;;;;;;;;;5125317;28;20087;-67
2021/05/02 11:42:53;;;;;;;6.30;3.58;;;;;;;;;;5120418;28;20024;-65
2021/05/02 11:45:23;;;;;;;3.55;3.03;;;;;;;;;;5113442;28;20030;-67
2021/05/02 11:47:49;;;;;;;5.10;3.05;;;;;;;;;;5107448;28;20044;-64
2021/05/02 11:50:16;;;;;;;2.92;2.60;;;;;;;;;;5112494;28;20028;-65
2021/05/02 11:52:50;;;;;;;5.75;3.75;;;;;;;;;;5108688;28;20043;-64
2021/05/02 11:55:26;;;;;;;3.80;3.42;;;;;;;;;;5118536;28;20107;-69
2021/05/02 11:57:53;;;;;;;3.90;3.30;;;;;;;;;;5091629;28;20051;-65
2021/05/02 12:00:38;;;;;;;4.80;3.20;;;;;;;;;;5119722;28;20071;-68
2021/05/02 12:03:05;;;;;;;2.92;2.50;;;;;;;;;;5115091;28;20043;-68
2021/05/02 12:05:31;;;;;;;3.17;2.88;;;;;;;;;;5115137;28;20463;-66
2021/05/02 12:08:10;;;;;;;3.30;2.90;;;;;;;;;;5115794;28;20027;-66
2021/05/02 12:10:37;;;;;;;4.57;3.25;;;;;;;;;;5116980;28;20106;-68
2021/05/02 12:13:05;;;;;;;4.65;3.72;;;;;;;;;;5113718;28;20040;-68
2021/05/02 12:15:31;;;;;;;3.63;3.15;;;;;;;;;;5114484;28;20106;-69
2021/05/02 12:17:58;;;;;;;5.75;4.22;;;;;;;;;;5118518;28;20106;-69
2021/05/02 12:20:24;;;;;;;4.78;3.55;;;;;;;;;;5115753;28;20035;-74
2021/05/02 12:22:51;;;;;;;3.50;3.20;;;;;;;;;;5111380;28;20165;-72
2021/05/02 12:25:17;;;;;;;4.75;2.97;;;;;;;;;;5117035;28;20020;-70
2021/05/02 12:27:56;;;;;;;4.18;3.47;;;;;;;;;;5100845;28;20020;-69
2021/05/02 12:30:23;;;;;;;3.40;3.10;;;;;;;;;;5102564;28;20043;-66
2021/05/02 12:32:49;;;;;;;4.75;4.35;;;;;;;;;;5117933;28;20034;-70
2021/05/02 12:35:15;;;;;;;3.20;2.90;;;;;;;;;;5100315;28;20390;-73
2021/05/02 12:37:41;;;;;;;4.80;3.58;;;;;;;;;;5103510;28;20035;-73
2021/05/02 12:40:08;;;;;;;4.97;4.47;;;;;;;;;;5097679;28;20059;-73
2021/05/02 12:42:35;;;;;;;3.20;2.90;;;;;;;;;;5101304;28;20061;-74
2021/05/02 12:45:02;;;;;;;4.13;3.22;;;;;;;;;;5093885;28;20107;-73
2021/05/02 12:47:28;;;;;;;5.28;2.90;;;;;;;;;;5108464;28;20068;-72
2021/05/02 12:49:55;;;;;;;3.03;2.50;;;;;;;;;;5098811;28;20114;-73
2021/05/02 12:52:28;;;;;;;2.70;2.50;;;;;;;;;;5102436;28;20020;-72
2021/05/02 12:54:54;;;;;;;3.88;2.80;;;;;;;;;;5093510;28;20019;-72
2021/05/02 12:57:24;;;;;;;4.25;3.10;;;;;;;;;;5082608;28;20076;-72
2021/05/02 12:59:59;;;;;;;3.42;2.50;;;;;;;;;;5102809;28;20108;-71
2021/05/02 13:02:34;;;;;;;3.55;2.58;;;;;;;;;;5106368;28;20016;-72
2021/05/02 13:05:02;;;;;;;5.40;2.67;;;;;;;;;;5100880;28;20076;-72
2021/05/02 13:07:30;;;;;;;3.40;2.65;;;;;;;;;;5097136;28;20180;-71
2021/05/02 13:09:57;;;;;;;2.72;2.50;;;;;;;;;;5094363;28;20023;-70
2021/05/02 13:12:23;;;;;;;3.05;2.75;;;;;;;;;;5104852;28;20098;-68
2021/05/02 13:15:06;;;;;;;3.47;2.55;;;;;;;;;;5093490;28;20127;-68
2021/05/02 13:17:32;;;;;;;2.70;2.22;;;;;;;;;;5104924;28;20034;-69
2021/05/02 13:19:59;;;;;;;2.47;2.28;;;;;;;;;;5111182;28;20114;-69
2021/05/02 13:22:26;;;;;;;6.75;6.05;;;;;;;;;;5102785;28;20378;-69
2021/05/02 13:24:56;;;;;;;7.82;7.05;;;;;;;;;;5097018;28;20020;-69
2021/05/02 13:27:31;;;;;;;5.07;3.45;;;;;;;;;;5096099;28;20020;-69
2021/05/02 13:29:57;;;;;;;4.18;2.88;;;;;;;;;;5093608;28;20027;-70
2021/05/02 13:32:23;;;;;;;2.50;2.30;;;;;;;;;;5095011;28;20074;-69
2021/05/02 13:34:49;;;;;;;3.42;2.40;;;;;;;;;;5105373;28;20028;-68
2021/05/02 13:37:16;;;;;;;4.97;2.80;;;;;;;;;;5105347;28;20135;-67
2021/05/02 13:39:42;;;;;;;3.72;2.80;;;;;;;;;;5098028;28;20785;-69
2021/05/02 13:42:08;;;;;;;4.40;3.13;;;;;;;;;;5095284;28;20422;-68
2021/05/02 13:44:36;;;;;;;14.25;9.05;;;;;;;;;;5097275;28;20020;-69
2021/05/02 13:47:03;;;;;;;10.38;7.68;;;;;;;;;;5107208;28;20024;-68
2021/05/02 13:49:29;;;;;;;6.45;4.00;;;;;;;;;;5099805;28;20455;-69
2021/05/02 13:51:55;;;;;;;2.85;2.63;;;;;;;;;;5110924;28;20031;-69
2021/05/02 13:54:21;;;;;;;3.70;3.40;;;;;;;;;;5109353;28;20088;-70
2021/05/02 13:56:47;;;;;;;3.78;2.90;;;;;;;;;;5108246;28;20076;-70
2021/05/02 13:59:13;;;;;;;5.45;2.97;;;;;;;;;;5102397;28;20501;-70
2021/05/02 14:01:41;;;;;;;4.95;3.70;;;;;;;;;;5091833;28;20103;-70
2021/05/02 14:04:07;;;;;;;3.22;2.80;;;;;;;;;;5098086;28;20197;-70
2021/05/02 14:06:33;;;;;;;3.45;2.90;;;;;;;;;;5109013;28;20034;-70
2021/05/02 14:09:00;;;;;;;2.35;1.98;;;;;;;;;;5108309;28;20107;-70
2021/05/02 14:11:26;;;;;;;2.10;1.90;;;;;;;;;;5111902;28;20476;-70
2021/05/02 14:13:53;;;;;;;2.20;2.00;;;;;;;;;;5110275;28;20456;-69
2021/05/02 14:16:19;;;;;;;2.83;2.53;;;;;;;;;;5106810;28;20024;-70
2021/05/02 14:18:45;;;;;;;2.60;2.33;;;;;;;;;;5081608;28;20032;-70
2021/05/02 14:21:12;;;;;;;4.10;3.45;;;;;;;;;;5101588;28;20020;-70
2021/05/02 14:23:38;;;;;;;3.55;2.88;;;;;;;;;;5104257;28;20031;-71
2021/05/02 14:26:04;;;;;;;5.43;3.05;;;;;;;;;;5113752;28;20023;-70
2021/05/02 14:28:31;;;;;;;2.88;2.58;;;;;;;;;;5116128;28;20030;-67
2021/05/02 14:30:57;;;;;;;4.18;2.97;;;;;;;;;;5107910;28;20024;-70
2021/05/02 14:33:24;;;;;;;3.40;2.80;;;;;;;;;;5096935;28;20383;-71
2021/05/02 14:35:50;;;;;;;2.92;2.50;;;;;;;;;;5105569;28;20080;-71
2021/05/02 14:38:16;;;;;;;2.42;2.22;;;;;;;;;;5097073;28;20057;-71
2021/05/02 14:40:43;;;;;;;2.78;2.13;;;;;;;;;;5101713;28;20024;-71
2021/05/02 14:43:09;;;;;;;4.10;3.65;;;;;;;;;;5101583;28;20035;-69
2021/05/02 14:45:36;;;;;;;3.63;3.28;;;;;;;;;;5111648;28;20428;-70
2021/05/02 14:48:03;;;;;;;3.55;2.67;;;;;;;;;;5115823;28;20035;-70
2021/05/02 14:50:29;;;;;;;3.50;2.92;;;;;;;;;;5101595;28;20024;-68
2021/05/02 14:52:56;;;;;;;3.00;2.60;;;;;;;;;;5115675;28;20066;-68